sensor_id;sensor_type;location;lat;lon;timestamp;P1;durP1;ratioP1;P2;durP2;ratioP2
58657;SDS011;44428;45.630;13.786;2022-11-20T00:00:51;0.28;;;0.20;;
58657;SDS011;44428;45.630;13.786;2022-11-20T00:03:17;0.88;;;0.30;;
58657;SDS011;44428;45.630;13.786;2022-11-20T00:05:43;0.63;;;0.20;;
58657;SDS011;44428;45.630;13.786;2022-11-20T00:08:09;0.25;;;0.20;;
58657;SDS011;44428;45.630;13.786;2022-11-20T00:10:36;0.17;;;0.15;;
58657;SDS011;44428;45.630;13.786;2022-11-20T00:13:02;0.22;;;0.20;;
58657;SDS011;44428;45.630;13.786;2022-11-20T00:15:28;0.63;;;0.30;;
58657;SDS011;44428;45.630;13.786;2022-11-20T00:17:53;0.47;;;0.20;;
58657;SDS011;44428;45.630;13.786;2022-11-20T00:20:19;0.35;;;0.20;;
58657;SDS011;44428;45.630;13.786;2022-11-20T00:22:45;3.30;;;0.32;;
58657;SDS011;44428;45.630;13.786;2022-11-20T00:25:11;0.30;;;0.30;;
58657;SDS011;44428;45.630;13.786;2022-11-20T00:27:37;0.73;;;0.30;;
58657;SDS011;44428;45.630;13.786;2022-11-20T00:30:03;0.40;;;0.25;;
58657;SDS011;44428;45.630;13.786;2022-11-20T00:32:29;0.43;;;0.30;;
58657;SDS011;44428;45.630;13.786;2022-11-20T00:34:55;0.35;;;0.20;;
58657;SDS011;44428;45.630;13.786;2022-11-20T00:37:21;0.20;;;0.20;;
58657;SDS011;44428;45.630;13.786;2022-11-20T00:39:47;0.30;;;0.20;;
58657;SDS011;44428;45.630;13.786;2022-11-20T00:42:12;0.75;;;0.32;;
58657;SDS011;44428;45.630;13.786;2022-11-20T00:44:38;0.40;;;0.20;;
58657;SDS011;44428;45.630;13.786;2022-11-20T00:47:04;0.45;;;0.22;;
58657;SDS011;44428;45.630;13.786;2022-11-20T00:49:29;0.35;;;0.35;;
58657;SDS011;44428;45.630;13.786;2022-11-20T00:51:55;0.35;;;0.17;;
58657;SDS011;44428;45.630;13.786;2022-11-20T00:54:21;0.45;;;0.40;;
58657;SDS011;44428;45.630;13.786;2022-11-20T00:56:46;0.38;;;0.20;;
58657;SDS011;44428;45.630;13.786;2022-11-20T00:59:12;0.17;;;0.10;;
58657;SDS011;44428;45.630;13.786;2022-11-20T01:01:38;0.57;;;0.30;;
58657;SDS011;44428;45.630;13.786;2022-11-20T01:04:04;0.25;;;0.25;;
58657;SDS011;44428;45.630;13.786;2022-11-20T01:06:31;0.20;;;0.20;;
58657;SDS011;44428;45.630;13.786;2022-11-20T01:09:00;0.32;;;0.30;;
58657;SDS011;44428;45.630;13.786;2022-11-20T01:13:57;0.20;;;0.20;;
58657;SDS011;44428;45.630;13.786;2022-11-20T01:16:25;0.43;;;0.20;;
58657;SDS011;44428;45.630;13.786;2022-11-20T01:18:54;0.20;;;0.20;;
58657;SDS011;44428;45.630;13.786;2022-11-20T01:21:22;0.22;;;0.10;;
58657;SDS011;44428;45.630;13.786;2022-11-20T01:23:50;0.30;;;0.10;;
58657;SDS011;44428;45.630;13.786;2022-11-20T01:26:21;0.13;;;0.13;;
58657;SDS011;44428;45.630;13.786;2022-11-20T01:28:49;1.13;;;0.30;;
58657;SDS011;44428;45.630;13.786;2022-11-20T01:31:20;0.13;;;0.13;;
58657;SDS011;44428;45.630;13.786;2022-11-20T01:33:49;0.65;;;0.20;;
58657;SDS011;44428;45.630;13.786;2022-11-20T01:36:17;0.13;;;0.13;;
58657;SDS011;44428;45.630;13.786;2022-11-20T01:38:45;0.10;;;0.10;;
58657;SDS011;44428;45.630;13.786;2022-11-20T01:41:11;0.10;;;0.10;;
58657;SDS011;44428;45.630;13.786;2022-11-20T01:43:58;0.43;;;0.10;;
58657;SDS011;44428;45.630;13.786;2022-11-20T01:46:24;0.38;;;0.20;;
58657;SDS011;44428;45.630;13.786;2022-11-20T01:51:49;0.80;;;0.30;;
58657;SDS011;44428;45.630;13.786;2022-11-20T01:54:19;0.20;;;0.10;;
58657;SDS011;44428;45.630;13.786;2022-11-20T01:56:49;0.10;;;0.10;;
58657;SDS011;44428;45.630;13.786;2022-11-20T01:59:18;0.20;;;0.20;;
58657;SDS011;44428;45.630;13.786;2022-11-20T02:01:46;0.73;;;0.20;;
58657;SDS011;44428;45.630;13.786;2022-11-20T02:04:12;0.20;;;0.17;;
58657;SDS011;44428;45.630;13.786;2022-11-20T02:06:43;0.20;;;0.17;;
58657;SDS011;44428;45.630;13.786;2022-11-20T02:09:11;0.00;;;0.00;;
58657;SDS011;44428;45.630;13.786;2022-11-20T02:11:37;0.60;;;0.17;;
58657;SDS011;44428;45.630;13.786;2022-11-20T02:14:03;0.10;;;0.10;;
58657;SDS011;44428;45.630;13.786;2022-11-20T02:16:31;0.20;;;0.20;;
58657;SDS011;44428;45.630;13.786;2022-11-20T02:19:07;0.10;;;0.10;;
58657;SDS011;44428;45.630;13.786;2022-11-20T02:21:48;0.43;;;0.10;;
58657;SDS011;44428;45.630;13.786;2022-11-20T02:24:26;0.10;;;0.10;;
58657;SDS011;44428;45.630;13.786;2022-11-20T02:29:46;0.30;;;0.20;;
58657;SDS011;44428;45.630;13.786;2022-11-20T02:32:19;0.20;;;0.15;;
58657;SDS011;44428;45.630;13.786;2022-11-20T02:34:46;0.28;;;0.10;;
58657;SDS011;44428;45.630;13.786;2022-11-20T02:37:12;0.10;;;0.10;;
58657;SDS011;44428;45.630;13.786;2022-11-20T02:39:39;0.55;;;0.20;;
58657;SDS011;44428;45.630;13.786;2022-11-20T02:42:05;0.52;;;0.20;;
58657;SDS011;44428;45.630;13.786;2022-11-20T02:44:31;1.15;;;0.10;;
58657;SDS011;44428;45.630;13.786;2022-11-20T02:46:57;0.13;;;0.13;;
58657;SDS011;44428;45.630;13.786;2022-11-20T02:49:24;0.20;;;0.10;;
58657;SDS011;44428;45.630;13.786;2022-11-20T02:51:50;0.10;;;0.10;;
58657;SDS011;44428;45.630;13.786;2022-11-20T02:54:15;0.10;;;0.10;;
58657;SDS011;44428;45.630;13.786;2022-11-20T02:56:41;0.10;;;0.10;;
58657;SDS011;44428;45.630;13.786;2022-11-20T02:59:07;0.60;;;0.20;;
58657;SDS011;44428;45.630;13.786;2022-11-20T03:01:33;0.20;;;0.13;;
58657;SDS011;44428;45.630;13.786;2022-11-20T03:03:59;0.77;;;0.15;;
58657;SDS011;44428;45.630;13.786;2022-11-20T03:06:24;0.10;;;0.10;;
58657;SDS011;44428;45.630;13.786;2022-11-20T03:08:50;0.10;;;0.10;;
58657;SDS011;44428;45.630;13.786;2022-11-20T03:11:16;0.10;;;0.10;;
58657;SDS011;44428;45.630;13.786;2022-11-20T03:13:42;0.22;;;0.10;;
58657;SDS011;44428;45.630;13.786;2022-11-20T03:16:12;0.32;;;0.28;;
58657;SDS011;44428;45.630;13.786;2022-11-20T03:18:40;0.10;;;0.10;;
58657;SDS011;44428;45.630;13.786;2022-11-20T03:21:07;0.10;;;0.10;;
58657;SDS011;44428;45.630;13.786;2022-11-20T03:23:34;0.10;;;0.10;;
58657;SDS011;44428;45.630;13.786;2022-11-20T03:26:16;0.45;;;0.20;;
58657;SDS011;44428;45.630;13.786;2022-11-20T03:28:47;0.20;;;0.20;;
58657;SDS011;44428;45.630;13.786;2022-11-20T03:31:14;0.25;;;0.13;;
58657;SDS011;44428;45.630;13.786;2022-11-20T03:33:41;0.20;;;0.20;;
58657;SDS011;44428;45.630;13.786;2022-11-20T03:36:09;0.10;;;0.10;;
58657;SDS011;44428;45.630;13.786;2022-11-20T03:38:36;0.30;;;0.20;;
58657;SDS011;44428;45.630;13.786;2022-11-20T03:41:07;0.15;;;0.13;;
58657;SDS011;44428;45.630;13.786;2022-11-20T03:43:34;0.10;;;0.10;;
58657;SDS011;44428;45.630;13.786;2022-11-20T03:46:00;0.10;;;0.10;;
58657;SDS011;44428;45.630;13.786;2022-11-20T03:48:26;0.30;;;0.13;;
58657;SDS011;44428;45.630;13.786;2022-11-20T03:50:53;0.30;;;0.10;;
58657;SDS011;44428;45.630;13.786;2022-11-20T03:53:31;0.15;;;0.10;;
58657;SDS011;44428;45.630;13.786;2022-11-20T03:55:57;0.20;;;0.10;;
58657;SDS011;44428;45.630;13.786;2022-11-20T03:58:22;0.10;;;0.10;;
58657;SDS011;44428;45.630;13.786;2022-11-20T04:00:48;0.90;;;0.10;;
58657;SDS011;44428;45.630;13.786;2022-11-20T04:03:14;0.20;;;0.10;;
58657;SDS011;44428;45.630;13.786;2022-11-20T04:05:39;0.20;;;0.20;;
58657;SDS011;44428;45.630;13.786;2022-11-20T04:08:05;0.15;;;0.15;;
58657;SDS011;44428;45.630;13.786;2022-11-20T04:10:31;0.20;;;0.20;;
58657;SDS011;44428;45.630;13.786;2022-11-20T04:12:56;0.10;;;0.10;;
58657;SDS011;44428;45.630;13.786;2022-11-20T04:15:22;0.10;;;0.10;;
58657;SDS011;44428;45.630;13.786;2022-11-20T04:17:48;0.10;;;0.10;;
58657;SDS011;44428;45.630;13.786;2022-11-20T04:20:14;0.63;;;0.10;;
58657;SDS011;44428;45.630;13.786;2022-11-20T04:22:39;0.38;;;0.10;;
58657;SDS011;44428;45.630;13.786;2022-11-20T04:25:05;0.20;;;0.20;;
58657;SDS011;44428;45.630;13.786;2022-11-20T04:27:31;0.10;;;0.10;;
58657;SDS011;44428;45.630;13.786;2022-11-20T04:29:57;0.10;;;0.10;;
58657;SDS011;44428;45.630;13.786;2022-11-20T04:32:22;0.10;;;0.10;;
58657;SDS011;44428;45.630;13.786;2022-11-20T04:34:48;0.10;;;0.10;;
58657;SDS011;44428;45.630;13.786;2022-11-20T04:37:14;0.10;;;0.10;;
58657;SDS011;44428;45.630;13.786;2022-11-20T04:39:39;0.10;;;0.10;;
58657;SDS011;44428;45.630;13.786;2022-11-20T04:42:05;0.10;;;0.10;;
58657;SDS011;44428;45.630;13.786;2022-11-20T04:44:49;0.20;;;0.20;;
58657;SDS011;44428;45.630;13.786;2022-11-20T04:47:15;0.15;;;0.15;;
58657;SDS011;44428;45.630;13.786;2022-11-20T04:49:41;0.35;;;0.17;;
58657;SDS011;44428;45.630;13.786;2022-11-20T04:52:07;0.10;;;0.10;;
58657;SDS011;44428;45.630;13.786;2022-11-20T04:54:32;0.10;;;0.10;;
58657;SDS011;44428;45.630;13.786;2022-11-20T04:56:58;0.20;;;0.20;;
58657;SDS011;44428;45.630;13.786;2022-11-20T04:59:23;0.20;;;0.10;;
58657;SDS011;44428;45.630;13.786;2022-11-20T05:01:49;0.20;;;0.10;;
58657;SDS011;44428;45.630;13.786;2022-11-20T05:04:15;0.10;;;0.10;;
58657;SDS011;44428;45.630;13.786;2022-11-20T05:06:40;0.10;;;0.10;;
58657;SDS011;44428;45.630;13.786;2022-11-20T05:09:06;0.43;;;0.20;;
58657;SDS011;44428;45.630;13.786;2022-11-20T05:11:32;0.20;;;0.10;;
58657;SDS011;44428;45.630;13.786;2022-11-20T05:13:58;0.10;;;0.10;;
58657;SDS011;44428;45.630;13.786;2022-11-20T05:16:24;0.10;;;0.10;;
58657;SDS011;44428;45.630;13.786;2022-11-20T05:18:51;0.10;;;0.10;;
58657;SDS011;44428;45.630;13.786;2022-11-20T05:21:17;0.10;;;0.10;;
58657;SDS011;44428;45.630;13.786;2022-11-20T05:23:44;0.20;;;0.20;;
58657;SDS011;44428;45.630;13.786;2022-11-20T05:26:20;0.40;;;0.20;;
58657;SDS011;44428;45.630;13.786;2022-11-20T05:28:47;0.50;;;0.20;;
58657;SDS011;44428;45.630;13.786;2022-11-20T05:31:18;0.25;;;0.20;;
58657;SDS011;44428;45.630;13.786;2022-11-20T05:33:48;0.20;;;0.20;;
58657;SDS011;44428;45.630;13.786;2022-11-20T05:36:14;1.15;;;0.10;;
58657;SDS011;44428;45.630;13.786;2022-11-20T05:38:40;0.82;;;0.38;;
58657;SDS011;44428;45.630;13.786;2022-11-20T05:41:11;1.63;;;0.30;;
58657;SDS011;44428;45.630;13.786;2022-11-20T05:43:39;0.20;;;0.20;;
58657;SDS011;44428;45.630;13.786;2022-11-20T05:46:06;0.20;;;0.20;;
58657;SDS011;44428;45.630;13.786;2022-11-20T05:48:34;0.25;;;0.20;;
58657;SDS011;44428;45.630;13.786;2022-11-20T05:51:00;0.55;;;0.55;;
58657;SDS011;44428;45.630;13.786;2022-11-20T05:53:27;0.13;;;0.10;;
58657;SDS011;44428;45.630;13.786;2022-11-20T05:55:57;0.10;;;0.10;;
58657;SDS011;44428;45.630;13.786;2022-11-20T05:58:23;0.73;;;0.20;;
58657;SDS011;44428;45.630;13.786;2022-11-20T06:00:49;0.10;;;0.10;;
58657;SDS011;44428;45.630;13.786;2022-11-20T06:03:15;0.15;;;0.15;;
58657;SDS011;44428;45.630;13.786;2022-11-20T06:05:40;0.10;;;0.10;;
58657;SDS011;44428;45.630;13.786;2022-11-20T06:08:06;0.38;;;0.13;;
58657;SDS011;44428;45.630;13.786;2022-11-20T06:10:32;0.32;;;0.20;;
58657;SDS011;44428;45.630;13.786;2022-11-20T06:12:57;1.08;;;0.30;;
58657;SDS011;44428;45.630;13.786;2022-11-20T06:15:24;0.20;;;0.20;;
58657;SDS011;44428;45.630;13.786;2022-11-20T06:17:53;0.15;;;0.15;;
58657;SDS011;44428;45.630;13.786;2022-11-20T06:20:19;0.10;;;0.10;;
58657;SDS011;44428;45.630;13.786;2022-11-20T06:22:45;0.20;;;0.20;;
58657;SDS011;44428;45.630;13.786;2022-11-20T06:25:11;0.10;;;0.10;;
58657;SDS011;44428;45.630;13.786;2022-11-20T06:27:37;0.45;;;0.20;;
58657;SDS011;44428;45.630;13.786;2022-11-20T06:30:03;0.22;;;0.10;;
58657;SDS011;44428;45.630;13.786;2022-11-20T06:32:29;0.98;;;0.17;;
58657;SDS011;44428;45.630;13.786;2022-11-20T06:34:55;0.13;;;0.10;;
58657;SDS011;44428;45.630;13.786;2022-11-20T06:37:21;0.17;;;0.17;;
58657;SDS011;44428;45.630;13.786;2022-11-20T06:39:46;0.15;;;0.15;;
58657;SDS011;44428;45.630;13.786;2022-11-20T06:42:12;0.93;;;0.40;;
58657;SDS011;44428;45.630;13.786;2022-11-20T06:44:38;0.10;;;0.10;;
58657;SDS011;44428;45.630;13.786;2022-11-20T06:47:03;0.10;;;0.10;;
58657;SDS011;44428;45.630;13.786;2022-11-20T06:49:29;0.13;;;0.10;;
58657;SDS011;44428;45.630;13.786;2022-11-20T06:51:55;0.47;;;0.20;;
58657;SDS011;44428;45.630;13.786;2022-11-20T06:54:20;0.30;;;0.20;;
58657;SDS011;44428;45.630;13.786;2022-11-20T06:56:46;0.40;;;0.20;;
58657;SDS011;44428;45.630;13.786;2022-11-20T06:59:13;0.52;;;0.30;;
58657;SDS011;44428;45.630;13.786;2022-11-20T07:01:39;0.63;;;0.20;;
58657;SDS011;44428;45.630;13.786;2022-11-20T07:04:04;0.77;;;0.38;;
58657;SDS011;44428;45.630;13.786;2022-11-20T07:06:30;0.20;;;0.20;;
58657;SDS011;44428;45.630;13.786;2022-11-20T07:08:56;0.15;;;0.13;;
58657;SDS011;44428;45.630;13.786;2022-11-20T07:11:22;0.10;;;0.10;;
58657;SDS011;44428;45.630;13.786;2022-11-20T07:13:48;0.20;;;0.20;;
58657;SDS011;44428;45.630;13.786;2022-11-20T07:16:14;0.50;;;0.40;;
58657;SDS011;44428;45.630;13.786;2022-11-20T07:18:40;0.80;;;0.30;;
58657;SDS011;44428;45.630;13.786;2022-11-20T07:21:07;0.52;;;0.22;;
58657;SDS011;44428;45.630;13.786;2022-11-20T07:23:34;0.38;;;0.20;;
58657;SDS011;44428;45.630;13.786;2022-11-20T07:26:07;0.50;;;0.20;;
58657;SDS011;44428;45.630;13.786;2022-11-20T07:28:34;0.85;;;0.40;;
58657;SDS011;44428;45.630;13.786;2022-11-20T07:31:00;0.20;;;0.20;;
58657;SDS011;44428;45.630;13.786;2022-11-20T07:33:27;0.50;;;0.30;;
58657;SDS011;44428;45.630;13.786;2022-11-20T07:35:53;0.85;;;0.38;;
58657;SDS011;44428;45.630;13.786;2022-11-20T07:38:18;1.40;;;0.38;;
58657;SDS011;44428;45.630;13.786;2022-11-20T07:40:44;1.30;;;0.45;;
58657;SDS011;44428;45.630;13.786;2022-11-20T07:43:10;1.77;;;0.30;;
58657;SDS011;44428;45.630;13.786;2022-11-20T07:45:35;0.68;;;0.28;;
58657;SDS011;44428;45.630;13.786;2022-11-20T07:48:01;0.60;;;0.30;;
58657;SDS011;44428;45.630;13.786;2022-11-20T07:50:27;0.73;;;0.50;;
58657;SDS011;44428;45.630;13.786;2022-11-20T07:52:59;0.95;;;0.35;;
58657;SDS011;44428;45.630;13.786;2022-11-20T07:55:26;0.32;;;0.30;;
58657;SDS011;44428;45.630;13.786;2022-11-20T07:57:55;0.50;;;0.20;;
58657;SDS011;44428;45.630;13.786;2022-11-20T08:00:22;0.55;;;0.30;;
58657;SDS011;44428;45.630;13.786;2022-11-20T08:02:48;0.30;;;0.20;;
58657;SDS011;44428;45.630;13.786;2022-11-20T08:05:14;0.20;;;0.20;;
58657;SDS011;44428;45.630;13.786;2022-11-20T08:07:40;0.20;;;0.20;;
58657;SDS011;44428;45.630;13.786;2022-11-20T08:10:08;1.33;;;0.40;;
58657;SDS011;44428;45.630;13.786;2022-11-20T08:12:36;0.35;;;0.28;;
58657;SDS011;44428;45.630;13.786;2022-11-20T08:15:27;0.30;;;0.20;;
58657;SDS011;44428;45.630;13.786;2022-11-20T08:17:58;0.32;;;0.25;;
58657;SDS011;44428;45.630;13.786;2022-11-20T08:20:27;0.45;;;0.30;;
58657;SDS011;44428;45.630;13.786;2022-11-20T08:22:56;0.25;;;0.20;;
58657;SDS011;44428;45.630;13.786;2022-11-20T08:25:23;0.77;;;0.30;;
58657;SDS011;44428;45.630;13.786;2022-11-20T08:27:49;0.73;;;0.40;;
58657;SDS011;44428;45.630;13.786;2022-11-20T08:30:14;0.50;;;0.40;;
58657;SDS011;44428;45.630;13.786;2022-11-20T08:32:40;0.38;;;0.30;;
58657;SDS011;44428;45.630;13.786;2022-11-20T08:35:06;0.32;;;0.28;;
58657;SDS011;44428;45.630;13.786;2022-11-20T08:37:32;0.35;;;0.30;;
58657;SDS011;44428;45.630;13.786;2022-11-20T08:39:58;0.35;;;0.25;;
58657;SDS011;44428;45.630;13.786;2022-11-20T08:42:23;0.40;;;0.40;;
58657;SDS011;44428;45.630;13.786;2022-11-20T08:44:49;0.63;;;0.40;;
58657;SDS011;44428;45.630;13.786;2022-11-20T08:47:15;0.73;;;0.40;;
58657;SDS011;44428;45.630;13.786;2022-11-20T08:49:40;0.77;;;0.50;;
58657;SDS011;44428;45.630;13.786;2022-11-20T08:52:06;0.77;;;0.40;;
58657;SDS011;44428;45.630;13.786;2022-11-20T08:54:32;0.40;;;0.30;;
58657;SDS011;44428;45.630;13.786;2022-11-20T08:56:57;0.57;;;0.40;;
58657;SDS011;44428;45.630;13.786;2022-11-20T08:59:23;1.13;;;0.55;;
58657;SDS011;44428;45.630;13.786;2022-11-20T09:01:49;2.42;;;0.40;;
58657;SDS011;44428;45.630;13.786;2022-11-20T09:04:15;2.63;;;0.50;;
58657;SDS011;44428;45.630;13.786;2022-11-20T09:06:41;1.65;;;0.30;;
58657;SDS011;44428;45.630;13.786;2022-11-20T09:09:06;4.68;;;4.10;;
58657;SDS011;44428;45.630;13.786;2022-11-20T09:11:34;0.70;;;0.40;;
58657;SDS011;44428;45.630;13.786;2022-11-20T09:14:00;0.60;;;0.32;;
58657;SDS011;44428;45.630;13.786;2022-11-20T09:16:27;1.27;;;0.57;;
58657;SDS011;44428;45.630;13.786;2022-11-20T09:18:53;2.85;;;1.00;;
58657;SDS011;44428;45.630;13.786;2022-11-20T09:21:19;2.15;;;0.82;;
58657;SDS011;44428;45.630;13.786;2022-11-20T09:23:45;1.15;;;0.60;;
58657;SDS011;44428;45.630;13.786;2022-11-20T09:26:11;0.60;;;0.40;;
58657;SDS011;44428;45.630;13.786;2022-11-20T09:28:38;0.52;;;0.38;;
58657;SDS011;44428;45.630;13.786;2022-11-20T09:31:08;0.77;;;0.30;;
58657;SDS011;44428;45.630;13.786;2022-11-20T09:33:39;1.15;;;0.40;;
58657;SDS011;44428;45.630;13.786;2022-11-20T09:36:05;0.45;;;0.32;;
58657;SDS011;44428;45.630;13.786;2022-11-20T09:38:30;0.35;;;0.30;;
58657;SDS011;44428;45.630;13.786;2022-11-20T09:41:03;0.50;;;0.40;;
58657;SDS011;44428;45.630;13.786;2022-11-20T09:46:31;1.10;;;0.60;;
58657;SDS011;44428;45.630;13.786;2022-11-20T09:49:22;1.02;;;0.60;;
58657;SDS011;44428;45.630;13.786;2022-11-20T09:54:59;0.88;;;0.50;;
58657;SDS011;44428;45.630;13.786;2022-11-20T09:57:31;1.05;;;0.50;;
58657;SDS011;44428;45.630;13.786;2022-11-20T10:00:04;2.63;;;0.80;;
58657;SDS011;44428;45.630;13.786;2022-11-20T10:05:35;1.90;;;1.03;;
58657;SDS011;44428;45.630;13.786;2022-11-20T10:10:36;1.83;;;0.82;;
58657;SDS011;44428;45.630;13.786;2022-11-20T10:13:17;1.00;;;0.40;;
58657;SDS011;44428;45.630;13.786;2022-11-20T10:19:02;1.17;;;0.60;;
58657;SDS011;44428;45.630;13.786;2022-11-20T10:21:37;0.93;;;0.55;;
58657;SDS011;44428;45.630;13.786;2022-11-20T10:33:21;1.45;;;0.60;;
58657;SDS011;44428;45.630;13.786;2022-11-20T10:35:40;1.77;;;0.50;;
58657;SDS011;44428;45.630;13.786;2022-11-20T10:38:21;2.30;;;0.70;;
58657;SDS011;44428;45.630;13.786;2022-11-20T10:40:52;1.48;;;0.57;;
58657;SDS011;44428;45.630;13.786;2022-11-20T10:43:46;2.67;;;0.40;;
58657;SDS011;44428;45.630;13.786;2022-11-20T10:46:17;1.75;;;0.57;;
58657;SDS011;44428;45.630;13.786;2022-11-20T10:48:47;0.70;;;0.30;;
58657;SDS011;44428;45.630;13.786;2022-11-20T10:56:38;0.90;;;0.45;;
58657;SDS011;44428;45.630;13.786;2022-11-20T11:01:57;0.55;;;0.40;;
58657;SDS011;44428;45.630;13.786;2022-11-20T11:04:28;1.23;;;0.50;;
58657;SDS011;44428;45.630;13.786;2022-11-20T11:07:27;1.75;;;0.50;;
58657;SDS011;44428;45.630;13.786;2022-11-20T11:09:59;0.75;;;0.40;;
58657;SDS011;44428;45.630;13.786;2022-11-20T11:12:25;0.75;;;0.40;;
58657;SDS011;44428;45.630;13.786;2022-11-20T11:14:54;1.85;;;0.75;;
58657;SDS011;44428;45.630;13.786;2022-11-20T11:19:58;1.08;;;0.38;;
58657;SDS011;44428;45.630;13.786;2022-11-20T11:22:24;1.23;;;0.57;;
58657;SDS011;44428;45.630;13.786;2022-11-20T11:24:51;1.25;;;0.60;;
58657;SDS011;44428;45.630;13.786;2022-11-20T11:27:17;0.88;;;0.40;;
58657;SDS011;44428;45.630;13.786;2022-11-20T11:29:43;1.58;;;0.47;;
58657;SDS011;44428;45.630;13.786;2022-11-20T11:32:19;0.90;;;0.40;;
58657;SDS011;44428;45.630;13.786;2022-11-20T11:35:03;1.13;;;0.50;;
58657;SDS011;44428;45.630;13.786;2022-11-20T11:37:36;1.00;;;0.60;;
58657;SDS011;44428;45.630;13.786;2022-11-20T11:40:04;10.25;;;1.58;;
58657;SDS011;44428;45.630;13.786;2022-11-20T11:42:31;1.20;;;0.60;;
58657;SDS011;44428;45.630;13.786;2022-11-20T11:44:59;1.02;;;0.50;;
58657;SDS011;44428;45.630;13.786;2022-11-20T11:53:01;0.93;;;0.57;;
58657;SDS011;44428;45.630;13.786;2022-11-20T11:55:44;1.10;;;0.70;;
58657;SDS011;44428;45.630;13.786;2022-11-20T12:00:58;0.55;;;0.47;;
58657;SDS011;44428;45.630;13.786;2022-11-20T12:03:37;1.17;;;0.50;;
58657;SDS011;44428;45.630;13.786;2022-11-20T12:06:14;1.08;;;0.60;;
58657;SDS011;44428;45.630;13.786;2022-11-20T12:08:53;1.40;;;0.80;;
58657;SDS011;44428;45.630;13.786;2022-11-20T12:14:16;0.93;;;0.40;;
58657;SDS011;44428;45.630;13.786;2022-11-20T12:16:49;2.33;;;0.70;;
58657;SDS011;44428;45.630;13.786;2022-11-20T12:19:17;1.45;;;0.73;;
58657;SDS011;44428;45.630;13.786;2022-11-20T12:24:34;2.22;;;0.75;;
58657;SDS011;44428;45.630;13.786;2022-11-20T12:28:13;1.90;;;0.57;;
58657;SDS011;44428;45.630;13.786;2022-11-20T12:30:14;2.00;;;0.45;;
58657;SDS011;44428;45.630;13.786;2022-11-20T12:39:00;1.30;;;0.47;;
58657;SDS011;44428;45.630;13.786;2022-11-20T12:41:45;1.23;;;0.73;;
58657;SDS011;44428;45.630;13.786;2022-11-20T12:47:45;1.42;;;0.55;;
58657;SDS011;44428;45.630;13.786;2022-11-20T13:07:13;3.67;;;1.08;;
58657;SDS011;44428;45.630;13.786;2022-11-20T13:09:45;2.38;;;0.90;;
58657;SDS011;44428;45.630;13.786;2022-11-20T13:12:15;1.50;;;0.60;;
58657;SDS011;44428;45.630;13.786;2022-11-20T13:15:02;1.98;;;0.63;;
58657;SDS011;44428;45.630;13.786;2022-11-20T13:17:33;2.70;;;1.52;;
58657;SDS011;44428;45.630;13.786;2022-11-20T13:20:12;1.25;;;0.70;;
58657;SDS011;44428;45.630;13.786;2022-11-20T13:22:48;3.25;;;1.25;;
58657;SDS011;44428;45.630;13.786;2022-11-20T13:25:26;1.73;;;0.80;;
58657;SDS011;44428;45.630;13.786;2022-11-20T13:27:54;2.10;;;0.70;;
58657;SDS011;44428;45.630;13.786;2022-11-20T13:30:22;1.77;;;0.60;;
58657;SDS011;44428;45.630;13.786;2022-11-20T13:32:53;1.25;;;0.60;;
58657;SDS011;44428;45.630;13.786;2022-11-20T13:35:29;1.20;;;0.60;;
58657;SDS011;44428;45.630;13.786;2022-11-20T13:38:08;1.75;;;0.77;;
58657;SDS011;44428;45.630;13.786;2022-11-20T13:40:38;1.80;;;0.47;;
58657;SDS011;44428;45.630;13.786;2022-11-20T13:43:37;1.33;;;0.50;;
58657;SDS011;44428;45.630;13.786;2022-11-20T13:46:12;0.73;;;0.50;;
58657;SDS011;44428;45.630;13.786;2022-11-20T13:48:40;1.23;;;0.55;;
58657;SDS011;44428;45.630;13.786;2022-11-20T13:51:24;2.45;;;0.80;;
58657;SDS011;44428;45.630;13.786;2022-11-20T13:56:59;1.48;;;0.60;;
58657;SDS011;44428;45.630;13.786;2022-11-20T14:02:26;2.53;;;1.30;;
58657;SDS011;44428;45.630;13.786;2022-11-20T14:04:54;2.13;;;1.15;;
58657;SDS011;44428;45.630;13.786;2022-11-20T14:07:27;3.83;;;1.13;;
58657;SDS011;44428;45.630;13.786;2022-11-20T14:10:01;1.48;;;0.90;;
58657;SDS011;44428;45.630;13.786;2022-11-20T14:12:28;0.75;;;0.50;;
58657;SDS011;44428;45.630;13.786;2022-11-20T14:14:58;2.17;;;0.80;;
58657;SDS011;44428;45.630;13.786;2022-11-20T14:19:59;1.05;;;0.63;;
58657;SDS011;44428;45.630;13.786;2022-11-20T14:22:32;0.63;;;0.47;;
58657;SDS011;44428;45.630;13.786;2022-11-20T14:27:40;1.95;;;0.90;;
58657;SDS011;44428;45.630;13.786;2022-11-20T14:32:41;1.45;;;0.82;;
58657;SDS011;44428;45.630;13.786;2022-11-20T14:35:09;3.45;;;0.88;;
58657;SDS011;44428;45.630;13.786;2022-11-20T14:37:38;2.60;;;1.08;;
58657;SDS011;44428;45.630;13.786;2022-11-20T14:40:22;2.95;;;0.77;;
58657;SDS011;44428;45.630;13.786;2022-11-20T14:42:57;1.75;;;0.80;;
58657;SDS011;44428;45.630;13.786;2022-11-20T14:45:24;2.25;;;0.70;;
58657;SDS011;44428;45.630;13.786;2022-11-20T14:47:52;2.10;;;1.00;;
58657;SDS011;44428;45.630;13.786;2022-11-20T14:50:24;1.90;;;0.87;;
58657;SDS011;44428;45.630;13.786;2022-11-20T14:52:53;1.95;;;1.00;;
58657;SDS011;44428;45.630;13.786;2022-11-20T14:58:02;2.38;;;1.23;;
58657;SDS011;44428;45.630;13.786;2022-11-20T15:00:30;2.70;;;1.10;;
58657;SDS011;44428;45.630;13.786;2022-11-20T15:02:57;2.05;;;1.17;;
58657;SDS011;44428;45.630;13.786;2022-11-20T15:05:24;2.65;;;1.30;;
58657;SDS011;44428;45.630;13.786;2022-11-20T15:08:12;2.15;;;1.00;;
58657;SDS011;44428;45.630;13.786;2022-11-20T15:10:39;2.75;;;1.25;;
58657;SDS011;44428;45.630;13.786;2022-11-20T15:13:12;1.92;;;1.00;;
58657;SDS011;44428;45.630;13.786;2022-11-20T15:18:13;3.25;;;1.40;;
58657;SDS011;44428;45.630;13.786;2022-11-20T15:20:41;2.90;;;1.20;;
58657;SDS011;44428;45.630;13.786;2022-11-20T15:23:11;2.10;;;0.95;;
58657;SDS011;44428;45.630;13.786;2022-11-20T15:25:39;2.72;;;1.30;;
58657;SDS011;44428;45.630;13.786;2022-11-20T15:28:40;3.67;;;1.40;;
58657;SDS011;44428;45.630;13.786;2022-11-20T15:31:02;2.97;;;1.30;;
58657;SDS011;44428;45.630;13.786;2022-11-20T15:33:29;2.83;;;1.38;;
58657;SDS011;44428;45.630;13.786;2022-11-20T15:35:56;2.45;;;1.10;;
58657;SDS011;44428;45.630;13.786;2022-11-20T15:38:22;3.08;;;1.30;;
58657;SDS011;44428;45.630;13.786;2022-11-20T15:40:48;1.52;;;0.75;;
58657;SDS011;44428;45.630;13.786;2022-11-20T15:43:13;1.67;;;0.73;;
58657;SDS011;44428;45.630;13.786;2022-11-20T15:48:11;2.05;;;0.82;;
58657;SDS011;44428;45.630;13.786;2022-11-20T15:53:26;5.82;;;2.50;;
58657;SDS011;44428;45.630;13.786;2022-11-20T15:55:52;4.55;;;2.17;;
58657;SDS011;44428;45.630;13.786;2022-11-20T15:58:18;3.42;;;1.70;;
58657;SDS011;44428;45.630;13.786;2022-11-20T16:00:44;1.95;;;0.95;;
58657;SDS011;44428;45.630;13.786;2022-11-20T16:03:10;2.42;;;1.52;;
58657;SDS011;44428;45.630;13.786;2022-11-20T16:05:37;2.45;;;1.27;;
58657;SDS011;44428;45.630;13.786;2022-11-20T16:08:03;2.13;;;1.00;;
58657;SDS011;44428;45.630;13.786;2022-11-20T16:10:29;3.13;;;1.63;;
58657;SDS011;44428;45.630;13.786;2022-11-20T16:12:54;3.00;;;1.50;;
58657;SDS011;44428;45.630;13.786;2022-11-20T16:15:39;3.55;;;1.50;;
58657;SDS011;44428;45.630;13.786;2022-11-20T16:18:11;3.55;;;1.67;;
58657;SDS011;44428;45.630;13.786;2022-11-20T16:20:38;4.65;;;1.98;;
58657;SDS011;44428;45.630;13.786;2022-11-20T16:23:05;4.78;;;2.00;;
58657;SDS011;44428;45.630;13.786;2022-11-20T16:25:31;4.25;;;1.80;;
58657;SDS011;44428;45.630;13.786;2022-11-20T16:27:57;3.45;;;1.33;;
58657;SDS011;44428;45.630;13.786;2022-11-20T16:30:23;3.42;;;1.35;;